APG1192 RPLL-RPVE
Flight info
| Callsign | APG1192 |
|---|---|
| Flight time | 0h 37m |
| Altitude | 23000 |
| Route | VERDE2R VERDE W24 TAPER TAPER7A |
| Aircraft | A20N/M-SDE2E3FGHIRWXY/LB1 |
Departure
| Time | 2026-04-21 08:49 |
|---|---|
| Airport | Ninoy Aquino International Airport (RPLL) |
Arrival
| Time | 2026-04-21 09:26 |
|---|---|
| Airport | Godofredo P. Ramos Airport (RPVE) |
| Time | Latitude | Longitude | Altitude | Speed | Heading |
|---|---|---|---|---|---|
| 2026-04-21 08:00 | 14.51714 | 121.01476 | 54 ft | 0 kts | 46° |
| 2026-04-21 08:31 | 14.51706 | 121.01467 | 54 ft | 2 kts | 45° |
| 2026-04-21 08:31 | 14.51695 | 121.01456 | 54 ft | 2 kts | 46° |
| 2026-04-21 08:32 | 14.51685 | 121.01445 | 54 ft | 2 kts | 46° |
| 2026-04-21 08:32 | 14.51674 | 121.01434 | 53 ft | 2 kts | 46° |
| 2026-04-21 08:32 | 14.51664 | 121.01423 | 53 ft | 2 kts | 45° |
| 2026-04-21 08:32 | 14.51656 | 121.01409 | 53 ft | 2 kts | 77° |
| 2026-04-21 08:33 | 14.51655 | 121.01394 | 53 ft | 2 kts | 102° |
| 2026-04-21 08:33 | 14.51661 | 121.01379 | 52 ft | 2 kts | 127° |
| 2026-04-21 08:33 | 14.51665 | 121.01374 | 52 ft | 1 kts | 140° |
| 2026-04-21 08:33 | 14.51668 | 121.01371 | 52 ft | 0 kts | 135° |
| 2026-04-21 08:37 | 14.51667 | 121.01372 | 52 ft | 0 kts | 135° |
| 2026-04-21 08:37 | 14.51666 | 121.01373 | 52 ft | 0 kts | 135° |
| 2026-04-21 08:38 | 14.51658 | 121.01381 | 52 ft | 2 kts | 134° |
| 2026-04-21 08:38 | 14.51642 | 121.01399 | 52 ft | 4 kts | 134° |
| 2026-04-21 08:38 | 14.51617 | 121.01425 | 53 ft | 5 kts | 134° |
| 2026-04-21 08:38 | 14.51587 | 121.01457 | 54 ft | 6 kts | 134° |
| 2026-04-21 08:39 | 14.51543 | 121.01503 | 54 ft | 10 kts | 134° |
| 2026-04-21 08:39 | 14.51481 | 121.01567 | 56 ft | 14 kts | 135° |
| 2026-04-21 08:39 | 14.51403 | 121.01645 | 57 ft | 17 kts | 135° |
| 2026-04-21 08:39 | 14.51312 | 121.01741 | 57 ft | 20 kts | 135° |
| 2026-04-21 08:40 | 14.51225 | 121.01830 | 55 ft | 7 kts | 135° |
| 2026-04-21 08:40 | 14.51218 | 121.01837 | 55 ft | 0 kts | 135° |
| 2026-04-21 08:40 | 14.51216 | 121.01839 | 55 ft | 1 kts | 134° |
| 2026-04-21 08:41 | 14.51191 | 121.01865 | 55 ft | 8 kts | 134° |
| 2026-04-21 08:41 | 14.51139 | 121.01919 | 55 ft | 11 kts | 135° |
| 2026-04-21 08:41 | 14.51087 | 121.01971 | 55 ft | 10 kts | 139° |
| 2026-04-21 08:41 | 14.51024 | 121.01959 | 54 ft | 11 kts | 237° |
| 2026-04-21 08:42 | 14.50979 | 121.01877 | 52 ft | 14 kts | 239° |
| 2026-04-21 08:42 | 14.50927 | 121.01781 | 52 ft | 15 kts | 242° |
| 2026-04-21 08:42 | 14.50875 | 121.01687 | 52 ft | 15 kts | 239° |
| 2026-04-21 08:42 | 14.50818 | 121.01588 | 53 ft | 15 kts | 240° |
| 2026-04-21 08:43 | 14.50761 | 121.01488 | 52 ft | 16 kts | 240° |
| 2026-04-21 08:43 | 14.50699 | 121.01374 | 49 ft | 18 kts | 240° |
| 2026-04-21 08:43 | 14.50625 | 121.01253 | 45 ft | 20 kts | 236° |
| 2026-04-21 08:43 | 14.50558 | 121.01118 | 42 ft | 21 kts | 240° |
| 2026-04-21 08:44 | 14.50476 | 121.00977 | 39 ft | 23 kts | 240° |
| 2026-04-21 08:44 | 14.50397 | 121.00832 | 39 ft | 22 kts | 240° |
| 2026-04-21 08:44 | 14.50320 | 121.00691 | 39 ft | 22 kts | 240° |
| 2026-04-21 08:44 | 14.50241 | 121.00552 | 37 ft | 22 kts | 240° |
| 2026-04-21 08:45 | 14.50162 | 121.00410 | 36 ft | 22 kts | 240° |
| 2026-04-21 08:45 | 14.50084 | 121.00268 | 35 ft | 23 kts | 240° |
| 2026-04-21 08:45 | 14.50003 | 121.00121 | 32 ft | 23 kts | 239° |
| 2026-04-21 08:45 | 14.49932 | 120.99995 | 30 ft | 13 kts | 238° |
| 2026-04-21 08:46 | 14.49874 | 120.99968 | 30 ft | 0 kts | 159° |
| 2026-04-21 08:47 | 14.49861 | 120.99974 | 30 ft | 4 kts | 152° |
| 2026-04-21 08:47 | 14.49824 | 120.99997 | 30 ft | 7 kts | 142° |
| 2026-04-21 08:47 | 14.49808 | 121.00048 | 31 ft | 7 kts | 76° |
| 2026-04-21 08:47 | 14.49836 | 121.00105 | 32 ft | 11 kts | 60° |
| 2026-04-21 08:48 | 14.49879 | 121.00185 | 33 ft | 13 kts | 62° |
| 2026-04-21 08:48 | 14.50018 | 121.00435 | 35 ft | 76 kts | 62° |
| 2026-04-21 08:48 | 14.50396 | 121.01117 | 40 ft | 140 kts | 60° |
| 2026-04-21 08:48 | 14.50958 | 121.02144 | 200 ft | 177 kts | 62° |
| 2026-04-21 08:49 | 14.51557 | 121.03245 | 846 ft | 176 kts | 63° |
| 2026-04-21 08:49 | 14.52195 | 121.04373 | 1309 ft | 189 kts | 64° |
| 2026-04-21 08:49 | 14.52868 | 121.05570 | 1885 ft | 197 kts | 64° |
| 2026-04-21 08:49 | 14.53567 | 121.06854 | 2335 ft | 214 kts | 63° |
| 2026-04-21 08:50 | 14.54341 | 121.08254 | 2773 ft | 233 kts | 62° |
| 2026-04-21 08:50 | 14.55189 | 121.09764 | 3229 ft | 251 kts | 62° |
| 2026-04-21 08:50 | 14.56042 | 121.11365 | 3850 ft | 262 kts | 70° |
| 2026-04-21 08:50 | 14.56278 | 121.13206 | 4691 ft | 263 kts | 97° |
| 2026-04-21 08:51 | 14.55661 | 121.14957 | 5487 ft | 269 kts | 122° |
| 2026-04-21 08:51 | 14.54421 | 121.16408 | 6220 ft | 278 kts | 133° |
| 2026-04-21 08:51 | 14.53023 | 121.17826 | 6817 ft | 282 kts | 134° |
| 2026-04-21 08:51 | 14.51599 | 121.19241 | 7393 ft | 287 kts | 133° |
| 2026-04-21 08:52 | 14.50195 | 121.20679 | 8258 ft | 289 kts | 133° |
| 2026-04-21 08:52 | 14.48775 | 121.22135 | 9149 ft | 290 kts | 135° |
| 2026-04-21 08:52 | 14.47046 | 121.23197 | 9948 ft | 298 kts | 160° |
| 2026-04-21 08:52 | 14.44978 | 121.23444 | 10604 ft | 310 kts | 183° |
| 2026-04-21 08:53 | 14.42833 | 121.22786 | 11026 ft | 331 kts | 208° |
| 2026-04-21 08:53 | 14.41033 | 121.21211 | 11358 ft | 350 kts | 227° |
| 2026-04-21 08:53 | 14.39392 | 121.19255 | 11663 ft | 368 kts | 230° |
| 2026-04-21 08:53 | 14.37708 | 121.17230 | 11984 ft | 384 kts | 229° |
| 2026-04-21 08:54 | 14.35914 | 121.15117 | 12557 ft | 391 kts | 228° |
| 2026-04-21 08:54 | 14.34093 | 121.13017 | 13197 ft | 395 kts | 228° |
| 2026-04-21 08:54 | 14.32262 | 121.10940 | 13839 ft | 397 kts | 228° |
| 2026-04-21 08:54 | 14.30393 | 121.08791 | 14518 ft | 399 kts | 227° |
| 2026-04-21 08:55 | 14.28454 | 121.06781 | 15112 ft | 401 kts | 223° |
| 2026-04-21 08:55 | 14.26318 | 121.04933 | 15697 ft | 403 kts | 217° |
| 2026-04-21 08:55 | 14.24019 | 121.03255 | 16283 ft | 404 kts | 214° |
| 2026-04-21 08:55 | 14.21660 | 121.01603 | 16840 ft | 406 kts | 214° |
| 2026-04-21 08:56 | 14.19328 | 120.99986 | 17324 ft | 409 kts | 214° |
| 2026-04-21 08:56 | 14.16950 | 120.98313 | 17863 ft | 411 kts | 214° |
| 2026-04-21 08:56 | 14.14598 | 120.96642 | 18339 ft | 413 kts | 214° |
| 2026-04-21 08:56 | 14.12233 | 120.94979 | 18815 ft | 416 kts | 214° |
| 2026-04-21 08:57 | 14.09829 | 120.93301 | 19306 ft | 417 kts | 214° |
| 2026-04-21 08:57 | 14.07416 | 120.91601 | 19802 ft | 419 kts | 212° |
| 2026-04-21 08:57 | 14.04759 | 120.90391 | 20204 ft | 422 kts | 194° |
| 2026-04-21 08:57 | 14.01837 | 120.90083 | 20643 ft | 425 kts | 177° |
| 2026-04-21 08:58 | 13.98912 | 120.90640 | 21046 ft | 428 kts | 166° |
| 2026-04-21 08:58 | 13.96000 | 120.91411 | 21482 ft | 431 kts | 166° |
| 2026-04-21 08:58 | 13.93100 | 120.92178 | 21886 ft | 434 kts | 166° |
| 2026-04-21 08:58 | 13.90129 | 120.92956 | 22309 ft | 437 kts | 166° |
| 2026-04-21 08:59 | 13.87179 | 120.93720 | 22700 ft | 439 kts | 166° |
| 2026-04-21 08:59 | 13.84188 | 120.94489 | 22818 ft | 440 kts | 166° |
| 2026-04-21 08:59 | 13.81239 | 120.95246 | 22820 ft | 438 kts | 167° |
| 2026-04-21 08:59 | 13.78290 | 120.96003 | 22820 ft | 438 kts | 166° |
| 2026-04-21 09:00 | 13.75313 | 120.96766 | 22816 ft | 438 kts | 167° |
| 2026-04-21 09:00 | 13.72333 | 120.97531 | 22820 ft | 438 kts | 167° |
| 2026-04-21 09:00 | 13.69377 | 120.98289 | 22826 ft | 438 kts | 167° |
| 2026-04-21 09:00 | 13.66415 | 120.99049 | 22830 ft | 438 kts | 167° |
| 2026-04-21 09:01 | 13.63469 | 120.99806 | 22830 ft | 438 kts | 167° |
| 2026-04-21 09:01 | 13.60507 | 121.00567 | 22835 ft | 438 kts | 167° |
| 2026-04-21 09:01 | 13.57524 | 121.01330 | 22836 ft | 439 kts | 167° |
| 2026-04-21 09:01 | 13.54580 | 121.02090 | 22836 ft | 438 kts | 166° |
| 2026-04-21 09:02 | 13.51670 | 121.03072 | 22841 ft | 439 kts | 159° |
| 2026-04-21 09:02 | 13.48873 | 121.04382 | 22845 ft | 439 kts | 153° |
| 2026-04-21 09:02 | 13.46254 | 121.05989 | 22866 ft | 440 kts | 148° |
| 2026-04-21 09:03 | 13.41212 | 121.09549 | 22907 ft | 440 kts | 146° |
| 2026-04-21 09:03 | 13.38688 | 121.11347 | 22922 ft | 440 kts | 147° |
| 2026-04-21 09:03 | 13.36155 | 121.13137 | 22932 ft | 440 kts | 147° |
| 2026-04-21 09:03 | 13.33598 | 121.14929 | 22939 ft | 440 kts | 147° |
| 2026-04-21 09:04 | 13.31087 | 121.16682 | 22943 ft | 440 kts | 147° |
| 2026-04-21 09:04 | 13.28539 | 121.18464 | 22946 ft | 440 kts | 147° |
| 2026-04-21 09:04 | 13.26014 | 121.20230 | 22936 ft | 440 kts | 147° |
| 2026-04-21 09:04 | 13.23456 | 121.22021 | 22925 ft | 440 kts | 147° |
| 2026-04-21 09:05 | 13.20913 | 121.23802 | 22908 ft | 440 kts | 147° |
| 2026-04-21 09:05 | 13.18399 | 121.25565 | 22896 ft | 440 kts | 147° |
| 2026-04-21 09:05 | 13.15858 | 121.27345 | 22893 ft | 441 kts | 147° |
| 2026-04-21 09:05 | 13.13345 | 121.29105 | 22896 ft | 441 kts | 147° |
| 2026-04-21 09:06 | 13.10788 | 121.30897 | 22900 ft | 441 kts | 147° |
| 2026-04-21 09:06 | 13.08258 | 121.32669 | 22903 ft | 440 kts | 147° |
| 2026-04-21 09:06 | 13.05737 | 121.34435 | 22901 ft | 440 kts | 147° |
| 2026-04-21 09:06 | 13.03180 | 121.36225 | 22899 ft | 441 kts | 147° |
| 2026-04-21 09:07 | 13.00660 | 121.37988 | 22894 ft | 441 kts | 147° |
| 2026-04-21 09:07 | 12.98115 | 121.39769 | 22884 ft | 441 kts | 147° |
| 2026-04-21 09:07 | 12.95595 | 121.41530 | 22881 ft | 441 kts | 147° |
| 2026-04-21 09:07 | 12.93029 | 121.43323 | 22750 ft | 442 kts | 147° |
| 2026-04-21 09:08 | 12.90526 | 121.45074 | 22394 ft | 439 kts | 147° |
| 2026-04-21 09:08 | 12.87998 | 121.46837 | 21932 ft | 435 kts | 147° |
| 2026-04-21 09:08 | 12.85488 | 121.48581 | 21409 ft | 432 kts | 147° |
| 2026-04-21 09:08 | 12.83014 | 121.50301 | 20873 ft | 427 kts | 147° |
| 2026-04-21 09:09 | 12.80580 | 121.51996 | 20328 ft | 424 kts | 147° |
| 2026-04-21 09:09 | 12.78149 | 121.53690 | 19774 ft | 420 kts | 147° |
| 2026-04-21 09:09 | 12.75740 | 121.55371 | 19236 ft | 417 kts | 147° |
| 2026-04-21 09:09 | 12.73361 | 121.57032 | 18697 ft | 413 kts | 146° |
| 2026-04-21 09:10 | 12.70973 | 121.58698 | 18144 ft | 410 kts | 146° |
| 2026-04-21 09:10 | 12.68633 | 121.60332 | 17602 ft | 407 kts | 146° |
| 2026-04-21 09:10 | 12.66301 | 121.61961 | 17059 ft | 405 kts | 146° |
| 2026-04-21 09:10 | 12.63968 | 121.63588 | 16497 ft | 402 kts | 146° |
| 2026-04-21 09:11 | 12.61662 | 121.65197 | 15950 ft | 400 kts | 145° |
| 2026-04-21 09:11 | 12.59404 | 121.66781 | 15398 ft | 398 kts | 145° |
| 2026-04-21 09:11 | 12.57128 | 121.68382 | 14840 ft | 395 kts | 145° |
| 2026-04-21 09:11 | 12.54846 | 121.69984 | 14291 ft | 392 kts | 145° |
| 2026-04-21 09:12 | 12.52629 | 121.71536 | 13769 ft | 389 kts | 144° |
| 2026-04-21 09:12 | 12.50382 | 121.73106 | 13236 ft | 386 kts | 144° |
| 2026-04-21 09:12 | 12.48160 | 121.74657 | 12696 ft | 383 kts | 144° |
| 2026-04-21 09:12 | 12.45955 | 121.76196 | 12174 ft | 380 kts | 144° |
| 2026-04-21 09:13 | 12.43773 | 121.77718 | 11660 ft | 376 kts | 144° |
| 2026-04-21 09:13 | 12.41611 | 121.79222 | 11148 ft | 372 kts | 144° |
| 2026-04-21 09:13 | 12.39475 | 121.80709 | 10668 ft | 367 kts | 144° |
| 2026-04-21 09:13 | 12.37309 | 121.81996 | 10460 ft | 355 kts | 158° |
| 2026-04-21 09:14 | 12.34910 | 121.82378 | 10310 ft | 345 kts | 181° |
| 2026-04-21 09:14 | 12.32579 | 121.81976 | 10187 ft | 332 kts | 190° |
| 2026-04-21 09:14 | 12.30379 | 121.81471 | 10081 ft | 319 kts | 191° |
| 2026-04-21 09:14 | 12.28259 | 121.80985 | 10001 ft | 305 kts | 190° |
| 2026-04-21 09:15 | 12.26197 | 121.80520 | 9725 ft | 300 kts | 190° |
| 2026-04-21 09:15 | 12.24155 | 121.80067 | 9381 ft | 298 kts | 189° |
| 2026-04-21 09:15 | 12.22137 | 121.79623 | 9055 ft | 295 kts | 189° |
| 2026-04-21 09:15 | 12.20120 | 121.79184 | 8731 ft | 292 kts | 189° |
| 2026-04-21 09:16 | 12.18154 | 121.78757 | 8420 ft | 288 kts | 189° |
| 2026-04-21 09:16 | 12.16197 | 121.78333 | 8124 ft | 285 kts | 189° |
| 2026-04-21 09:16 | 12.14252 | 121.77911 | 7819 ft | 283 kts | 189° |
| 2026-04-21 09:16 | 12.12349 | 121.77499 | 7511 ft | 281 kts | 188° |
| 2026-04-21 09:17 | 12.10429 | 121.77084 | 7200 ft | 279 kts | 188° |
| 2026-04-21 09:17 | 12.08524 | 121.76672 | 6891 ft | 277 kts | 188° |
| 2026-04-21 09:17 | 12.06655 | 121.76268 | 6587 ft | 276 kts | 188° |
| 2026-04-21 09:17 | 12.04751 | 121.75856 | 6275 ft | 275 kts | 188° |
| 2026-04-21 09:18 | 12.02894 | 121.75454 | 5977 ft | 273 kts | 187° |
| 2026-04-21 09:18 | 12.01041 | 121.75053 | 5683 ft | 272 kts | 187° |
| 2026-04-21 09:18 | 11.99178 | 121.74652 | 5387 ft | 270 kts | 187° |
| 2026-04-21 09:18 | 11.97355 | 121.74259 | 5095 ft | 269 kts | 187° |
| 2026-04-21 09:19 | 11.95522 | 121.73862 | 4805 ft | 267 kts | 187° |
| 2026-04-21 09:19 | 11.93694 | 121.73468 | 4514 ft | 266 kts | 187° |
| 2026-04-21 09:19 | 11.91878 | 121.73134 | 4206 ft | 263 kts | 178° |
| 2026-04-21 09:19 | 11.90119 | 121.73392 | 3909 ft | 252 kts | 154° |
| 2026-04-21 09:20 | 11.88585 | 121.74135 | 3872 ft | 235 kts | 147° |
| 2026-04-21 09:20 | 11.87166 | 121.74889 | 3835 ft | 221 kts | 147° |
| 2026-04-21 09:20 | 11.85811 | 121.75610 | 3800 ft | 215 kts | 147° |
| 2026-04-21 09:20 | 11.84555 | 121.76407 | 3639 ft | 202 kts | 126° |
| 2026-04-21 09:21 | 11.83976 | 121.77621 | 3440 ft | 188 kts | 94° |
| 2026-04-21 09:21 | 11.84133 | 121.78906 | 3280 ft | 178 kts | 68° |
| 2026-04-21 09:21 | 11.84674 | 121.79986 | 3116 ft | 169 kts | 64° |
| 2026-04-21 09:21 | 11.85213 | 121.81048 | 2883 ft | 164 kts | 64° |
| 2026-04-21 09:22 | 11.85722 | 121.82056 | 2681 ft | 157 kts | 65° |
| 2026-04-21 09:22 | 11.86210 | 121.83022 | 2497 ft | 149 kts | 65° |
| 2026-04-21 09:22 | 11.86687 | 121.83940 | 2317 ft | 144 kts | 64° |
| 2026-04-21 09:22 | 11.87166 | 121.84843 | 2157 ft | 144 kts | 64° |
| 2026-04-21 09:23 | 11.87629 | 121.85744 | 1935 ft | 143 kts | 65° |
| 2026-04-21 09:23 | 11.88084 | 121.86645 | 1753 ft | 142 kts | 66° |
| 2026-04-21 09:23 | 11.88529 | 121.87540 | 1545 ft | 140 kts | 66° |
| 2026-04-21 09:23 | 11.88969 | 121.88424 | 1364 ft | 139 kts | 66° |
| 2026-04-21 09:24 | 11.89402 | 121.89294 | 1191 ft | 138 kts | 66° |
| 2026-04-21 09:24 | 11.89836 | 121.90174 | 1003 ft | 138 kts | 66° |
| 2026-04-21 09:24 | 11.90270 | 121.91035 | 818 ft | 137 kts | 65° |
| 2026-04-21 09:24 | 11.90704 | 121.91908 | 630 ft | 137 kts | 65° |
| 2026-04-21 09:25 | 11.91133 | 121.92771 | 472 ft | 137 kts | 65° |
| 2026-04-21 09:25 | 11.91569 | 121.93634 | 272 ft | 134 kts | 64° |
| 2026-04-21 09:25 | 11.91980 | 121.94473 | 125 ft | 131 kts | 65° |
| 2026-04-21 09:25 | 11.92399 | 121.95265 | 13 ft | 121 kts | 63° |
| 2026-04-21 09:26 | 11.92646 | 121.95784 | 13 ft | 47 kts | 63° |
| 2026-04-21 09:26 | 11.92774 | 121.96049 | 12 ft | 29 kts | 65° |
| 2026-04-21 09:26 | 11.92754 | 121.96145 | 12 ft | 10 kts | 147° |
| 2026-04-21 09:26 | 11.92688 | 121.96181 | 12 ft | 11 kts | 152° |
| 2026-04-21 09:27 | 11.92633 | 121.96223 | 12 ft | 9 kts | 100° |
| 2026-04-21 09:27 | 11.92649 | 121.96278 | 12 ft | 6 kts | 95° |
| 2026-04-21 09:27 | 11.92625 | 121.96308 | 13 ft | 0 kts | 153° |